N609KB PAYA-PAJN
Flight info
| Callsign | N609KB |
|---|---|
| Flight time | 0h 41m |
| Altitude | 25000 |
| Route | FAKES4 FAKES J541 SSR |
| Aircraft | STAR/L-SDFGRWY/S |
Departure
| Time | 2026-04-21 22:40 |
|---|---|
| Airport | Yakutat Airport (PAYA) |
Arrival
| Time | 2026-04-21 23:21 |
|---|---|
| Airport | Juneau International Airport (PAJN) |
| Time | Latitude | Longitude | Altitude | Speed | Heading |
|---|---|---|---|---|---|
| 2026-04-21 22:30 | 59.50989 | -139.66732 | 44 ft | 0 kts | 305° |
| 2026-04-21 22:38 | 59.51018 | -139.66679 | 44 ft | 18 kts | 118° |
| 2026-04-21 22:38 | 59.50956 | -139.66548 | 45 ft | 10 kts | 134° |
| 2026-04-21 22:38 | 59.50896 | -139.66408 | 45 ft | 12 kts | 123° |
| 2026-04-21 22:39 | 59.50853 | -139.66282 | 45 ft | 11 kts | 130° |
| 2026-04-21 22:39 | 59.50778 | -139.66255 | 45 ft | 19 kts | 219° |
| 2026-04-21 22:39 | 59.50585 | -139.66626 | 44 ft | 59 kts | 225° |
| 2026-04-21 22:39 | 59.50195 | -139.67390 | 61 ft | 98 kts | 223° |
| 2026-04-21 22:40 | 59.49634 | -139.68462 | 245 ft | 134 kts | 222° |
| 2026-04-21 22:40 | 59.48919 | -139.69702 | 727 ft | 141 kts | 222° |
| 2026-04-21 22:40 | 59.48028 | -139.70466 | 1390 ft | 143 kts | 188° |
| 2026-04-21 22:40 | 59.47104 | -139.69850 | 2105 ft | 145 kts | 142° |
| 2026-04-21 22:41 | 59.46522 | -139.68246 | 2836 ft | 149 kts | 125° |
| 2026-04-21 22:41 | 59.45926 | -139.66389 | 3302 ft | 165 kts | 121° |
| 2026-04-21 22:41 | 59.45447 | -139.64387 | 4120 ft | 159 kts | 115° |
| 2026-04-21 22:41 | 59.45028 | -139.62398 | 4921 ft | 156 kts | 114° |
| 2026-04-21 22:42 | 59.44575 | -139.60465 | 5665 ft | 156 kts | 119° |
| 2026-04-21 22:42 | 59.44078 | -139.58566 | 6420 ft | 156 kts | 119° |
| 2026-04-21 22:42 | 59.43591 | -139.56637 | 7111 ft | 159 kts | 118° |
| 2026-04-21 22:42 | 59.43108 | -139.54652 | 7775 ft | 163 kts | 117° |
| 2026-04-21 22:43 | 59.42612 | -139.52626 | 8477 ft | 166 kts | 118° |
| 2026-04-21 22:43 | 59.42091 | -139.50553 | 9173 ft | 172 kts | 118° |
| 2026-04-21 22:43 | 59.41556 | -139.48416 | 9957 ft | 177 kts | 118° |
| 2026-04-21 22:43 | 59.41009 | -139.46206 | 10705 ft | 182 kts | 118° |
| 2026-04-21 22:44 | 59.40445 | -139.43935 | 11410 ft | 188 kts | 118° |
| 2026-04-21 22:44 | 59.39862 | -139.41606 | 12113 ft | 192 kts | 118° |
| 2026-04-21 22:44 | 59.39266 | -139.39224 | 12819 ft | 197 kts | 118° |
| 2026-04-21 22:44 | 59.38657 | -139.36780 | 13512 ft | 202 kts | 118° |
| 2026-04-21 22:45 | 59.38032 | -139.34280 | 14173 ft | 206 kts | 118° |
| 2026-04-21 22:45 | 59.37392 | -139.31736 | 14799 ft | 210 kts | 118° |
| 2026-04-21 22:45 | 59.36742 | -139.29145 | 15426 ft | 214 kts | 118° |
| 2026-04-21 22:45 | 59.36082 | -139.26508 | 16059 ft | 217 kts | 118° |
| 2026-04-21 22:46 | 59.35408 | -139.23831 | 16690 ft | 220 kts | 117° |
| 2026-04-21 22:46 | 59.34724 | -139.21119 | 17329 ft | 224 kts | 117° |
| 2026-04-21 22:46 | 59.34031 | -139.18361 | 17969 ft | 227 kts | 117° |
| 2026-04-21 22:46 | 59.33326 | -139.15565 | 18579 ft | 231 kts | 117° |
| 2026-04-21 22:47 | 59.32606 | -139.12726 | 19128 ft | 235 kts | 116° |
| 2026-04-21 22:47 | 59.31875 | -139.09834 | 19673 ft | 239 kts | 116° |
| 2026-04-21 22:47 | 59.31131 | -139.06895 | 20235 ft | 243 kts | 116° |
| 2026-04-21 22:47 | 59.30374 | -139.03912 | 20796 ft | 247 kts | 115° |
| 2026-04-21 22:48 | 59.29605 | -139.00883 | 21363 ft | 251 kts | 115° |
| 2026-04-21 22:48 | 59.28821 | -138.97801 | 21934 ft | 255 kts | 115° |
| 2026-04-21 22:48 | 59.28024 | -138.94673 | 22497 ft | 259 kts | 115° |
| 2026-04-21 22:48 | 59.27214 | -138.91500 | 23065 ft | 263 kts | 114° |
| 2026-04-21 22:49 | 59.26392 | -138.88282 | 23625 ft | 267 kts | 114° |
| 2026-04-21 22:49 | 59.25557 | -138.85015 | 24105 ft | 270 kts | 114° |
| 2026-04-21 22:49 | 59.24711 | -138.81718 | 24563 ft | 274 kts | 114° |
| 2026-04-21 22:49 | 59.23835 | -138.78293 | 24838 ft | 291 kts | 114° |
| 2026-04-21 22:50 | 59.22895 | -138.74637 | 24964 ft | 312 kts | 114° |
| 2026-04-21 22:50 | 59.21884 | -138.70723 | 25026 ft | 333 kts | 114° |
| 2026-04-21 22:50 | 59.20818 | -138.66589 | 25050 ft | 349 kts | 114° |
| 2026-04-21 22:50 | 59.19705 | -138.62280 | 25068 ft | 361 kts | 114° |
| 2026-04-21 22:51 | 59.18559 | -138.57852 | 25074 ft | 370 kts | 114° |
| 2026-04-21 22:51 | 59.17386 | -138.53332 | 25085 ft | 377 kts | 115° |
| 2026-04-21 22:51 | 59.16195 | -138.48747 | 25088 ft | 382 kts | 115° |
| 2026-04-21 22:51 | 59.14986 | -138.44109 | 25088 ft | 386 kts | 115° |
| 2026-04-21 22:52 | 59.13766 | -138.39435 | 25089 ft | 388 kts | 115° |
| 2026-04-21 22:52 | 59.12538 | -138.34740 | 25095 ft | 390 kts | 115° |
| 2026-04-21 22:52 | 59.11304 | -138.30030 | 25129 ft | 391 kts | 115° |
| 2026-04-21 22:52 | 59.10065 | -138.25314 | 25112 ft | 391 kts | 115° |
| 2026-04-21 22:53 | 59.08825 | -138.20607 | 25103 ft | 392 kts | 115° |
| 2026-04-21 22:53 | 59.07582 | -138.15894 | 25107 ft | 392 kts | 116° |
| 2026-04-21 22:53 | 59.06333 | -138.11179 | 25100 ft | 393 kts | 115° |
| 2026-04-21 22:53 | 59.05090 | -138.06447 | 25136 ft | 396 kts | 116° |
| 2026-04-21 22:54 | 59.03815 | -138.01707 | 25114 ft | 395 kts | 115° |
| 2026-04-21 22:54 | 59.02566 | -137.96964 | 25106 ft | 394 kts | 115° |
| 2026-04-21 22:54 | 59.01304 | -137.92252 | 25103 ft | 393 kts | 115° |
| 2026-04-21 22:54 | 59.00048 | -137.87546 | 25103 ft | 393 kts | 115° |
| 2026-04-21 22:55 | 58.98801 | -137.82825 | 25100 ft | 393 kts | 114° |
| 2026-04-21 22:55 | 58.97489 | -137.78180 | 25099 ft | 393 kts | 121° |
| 2026-04-21 22:55 | 58.96075 | -137.73652 | 25099 ft | 392 kts | 117° |
| 2026-04-21 22:55 | 58.94738 | -137.69049 | 25089 ft | 391 kts | 119° |
| 2026-04-21 22:56 | 58.93352 | -137.64545 | 25095 ft | 390 kts | 118° |
| 2026-04-21 22:56 | 58.92002 | -137.59985 | 25100 ft | 391 kts | 118° |
| 2026-04-21 22:56 | 58.90617 | -137.55432 | 25098 ft | 393 kts | 119° |
| 2026-04-21 22:56 | 58.89238 | -137.50873 | 25091 ft | 393 kts | 118° |
| 2026-04-21 22:57 | 58.87868 | -137.46315 | 25084 ft | 392 kts | 119° |
| 2026-04-21 22:57 | 58.86479 | -137.41783 | 25086 ft | 391 kts | 119° |
| 2026-04-21 22:57 | 58.85106 | -137.37237 | 25095 ft | 393 kts | 119° |
| 2026-04-21 22:57 | 58.83723 | -137.32703 | 25084 ft | 391 kts | 120° |
| 2026-04-21 22:58 | 58.82338 | -137.28184 | 25085 ft | 391 kts | 119° |
| 2026-04-21 22:58 | 58.80959 | -137.23660 | 25079 ft | 392 kts | 120° |
| 2026-04-21 22:58 | 58.79570 | -137.19138 | 25078 ft | 392 kts | 119° |
| 2026-04-21 22:58 | 58.78182 | -137.14607 | 25078 ft | 393 kts | 119° |
| 2026-04-21 22:59 | 58.76786 | -137.10076 | 25081 ft | 394 kts | 120° |
| 2026-04-21 22:59 | 58.75384 | -137.05528 | 25052 ft | 395 kts | 119° |
| 2026-04-21 22:59 | 58.73983 | -137.00994 | 25061 ft | 392 kts | 120° |
| 2026-04-21 22:59 | 58.72591 | -136.96498 | 25066 ft | 389 kts | 119° |
| 2026-04-21 23:00 | 58.71209 | -136.92032 | 25068 ft | 388 kts | 119° |
| 2026-04-21 23:00 | 58.69825 | -136.87584 | 25070 ft | 387 kts | 120° |
| 2026-04-21 23:00 | 58.68443 | -136.83142 | 25069 ft | 387 kts | 120° |
| 2026-04-21 23:00 | 58.67078 | -136.78767 | 25065 ft | 387 kts | 120° |
| 2026-04-21 23:01 | 58.65675 | -136.74276 | 25069 ft | 387 kts | 120° |
| 2026-04-21 23:01 | 58.64309 | -136.69911 | 24670 ft | 388 kts | 120° |
| 2026-04-21 23:01 | 58.62918 | -136.65477 | 24163 ft | 388 kts | 120° |
| 2026-04-21 23:01 | 58.61530 | -136.61056 | 23653 ft | 387 kts | 120° |
| 2026-04-21 23:02 | 58.60138 | -136.56641 | 23062 ft | 387 kts | 120° |
| 2026-04-21 23:02 | 58.58751 | -136.52234 | 22462 ft | 385 kts | 120° |
| 2026-04-21 23:02 | 58.57365 | -136.47856 | 21884 ft | 382 kts | 121° |
| 2026-04-21 23:02 | 58.55994 | -136.43527 | 21315 ft | 379 kts | 121° |
| 2026-04-21 23:03 | 58.54635 | -136.39235 | 20759 ft | 375 kts | 121° |
| 2026-04-21 23:03 | 58.53286 | -136.34995 | 20216 ft | 369 kts | 121° |
| 2026-04-21 23:03 | 58.51969 | -136.30851 | 19679 ft | 360 kts | 121° |
| 2026-04-21 23:03 | 58.50676 | -136.26802 | 19148 ft | 354 kts | 121° |
| 2026-04-21 23:04 | 58.49405 | -136.22821 | 18643 ft | 348 kts | 122° |
| 2026-04-21 23:04 | 58.48147 | -136.18891 | 18095 ft | 345 kts | 122° |
| 2026-04-21 23:04 | 58.46906 | -136.15018 | 17518 ft | 340 kts | 122° |
| 2026-04-21 23:04 | 58.45676 | -136.11191 | 16939 ft | 335 kts | 122° |
| 2026-04-21 23:05 | 58.44463 | -136.07415 | 16390 ft | 333 kts | 122° |
| 2026-04-21 23:05 | 58.43254 | -136.03662 | 15837 ft | 331 kts | 122° |
| 2026-04-21 23:05 | 58.42049 | -135.99933 | 15305 ft | 329 kts | 122° |
| 2026-04-21 23:05 | 58.40853 | -135.96224 | 14772 ft | 327 kts | 122° |
| 2026-04-21 23:06 | 58.39661 | -135.92542 | 14269 ft | 325 kts | 122° |
| 2026-04-21 23:06 | 58.38476 | -135.88886 | 13736 ft | 323 kts | 122° |
| 2026-04-21 23:06 | 58.37297 | -135.85256 | 13159 ft | 321 kts | 122° |
| 2026-04-21 23:06 | 58.36128 | -135.81657 | 12590 ft | 318 kts | 122° |
| 2026-04-21 23:07 | 58.34969 | -135.78103 | 12022 ft | 314 kts | 122° |
| 2026-04-21 23:07 | 58.33829 | -135.74602 | 11474 ft | 307 kts | 122° |
| 2026-04-21 23:07 | 58.33092 | -135.72345 | 11120 ft | 299 kts | 122° |
| 2026-04-21 23:07 | 58.32009 | -135.69034 | 10588 ft | 290 kts | 122° |
| 2026-04-21 23:08 | 58.30955 | -135.65813 | 10065 ft | 283 kts | 122° |
| 2026-04-21 23:08 | 58.29925 | -135.62668 | 9498 ft | 277 kts | 123° |
| 2026-04-21 23:08 | 58.28914 | -135.59586 | 8940 ft | 272 kts | 123° |
| 2026-04-21 23:08 | 58.27936 | -135.56612 | 8630 ft | 258 kts | 123° |
| 2026-04-21 23:09 | 58.27002 | -135.53778 | 8490 ft | 256 kts | 123° |
| 2026-04-21 23:09 | 58.26041 | -135.50854 | 8420 ft | 265 kts | 123° |
| 2026-04-21 23:09 | 58.25054 | -135.47869 | 8396 ft | 269 kts | 123° |
| 2026-04-21 23:09 | 58.24060 | -135.44855 | 8385 ft | 270 kts | 123° |
| 2026-04-21 23:10 | 58.23062 | -135.41839 | 8379 ft | 269 kts | 123° |
| 2026-04-21 23:10 | 58.22068 | -135.38833 | 8384 ft | 269 kts | 123° |
| 2026-04-21 23:10 | 58.21070 | -135.35826 | 8380 ft | 270 kts | 123° |
| 2026-04-21 23:10 | 58.20071 | -135.32817 | 8388 ft | 270 kts | 123° |
| 2026-04-21 23:11 | 58.19074 | -135.29810 | 8387 ft | 269 kts | 123° |
| 2026-04-21 23:11 | 58.18360 | -135.26559 | 8371 ft | 270 kts | 99° |
| 2026-04-21 23:11 | 58.18438 | -135.23001 | 7992 ft | 271 kts | 73° |
| 2026-04-21 23:11 | 58.19122 | -135.19797 | 7573 ft | 255 kts | 61° |
| 2026-04-21 23:12 | 58.19913 | -135.16876 | 7170 ft | 244 kts | 61° |
| 2026-04-21 23:12 | 58.20599 | -135.13997 | 6761 ft | 236 kts | 66° |
| 2026-04-21 23:12 | 58.21237 | -135.11170 | 6346 ft | 231 kts | 65° |
| 2026-04-21 23:12 | 58.21918 | -135.08370 | 5911 ft | 238 kts | 64° |
| 2026-04-21 23:13 | 58.22854 | -135.05791 | 5493 ft | 240 kts | 39° |
| 2026-04-21 23:13 | 58.24324 | -135.04402 | 5065 ft | 236 kts | 10° |
| 2026-04-21 23:13 | 58.25940 | -135.03885 | 4635 ft | 234 kts | 4° |
| 2026-04-21 23:13 | 58.27527 | -135.03540 | 4210 ft | 225 kts | 2° |
| 2026-04-21 23:14 | 58.29055 | -135.03099 | 3795 ft | 219 kts | 8° |
| 2026-04-21 23:14 | 58.30510 | -135.02554 | 3567 ft | 206 kts | 7° |
| 2026-04-21 23:14 | 58.31875 | -135.02122 | 3461 ft | 191 kts | 5° |
| 2026-04-21 23:14 | 58.33140 | -135.01723 | 3409 ft | 178 kts | 5° |
| 2026-04-21 23:15 | 58.34319 | -135.01326 | 3393 ft | 166 kts | 5° |
| 2026-04-21 23:15 | 58.35336 | -135.00503 | 3382 ft | 159 kts | 42° |
| 2026-04-21 23:15 | 58.35806 | -134.98562 | 3391 ft | 164 kts | 85° |
| 2026-04-21 23:15 | 58.35841 | -134.96468 | 3297 ft | 158 kts | 93° |
| 2026-04-21 23:16 | 58.35800 | -134.94334 | 2998 ft | 163 kts | 95° |
| 2026-04-21 23:16 | 58.35733 | -134.92213 | 2708 ft | 163 kts | 96° |
| 2026-04-21 23:16 | 58.35691 | -134.90059 | 2421 ft | 162 kts | 92° |
| 2026-04-21 23:16 | 58.35718 | -134.87927 | 2133 ft | 162 kts | 90° |
| 2026-04-21 23:17 | 58.35739 | -134.85810 | 1947 ft | 157 kts | 91° |
| 2026-04-21 23:17 | 58.35747 | -134.83796 | 1863 ft | 148 kts | 89° |
| 2026-04-21 23:17 | 58.35876 | -134.81850 | 1810 ft | 148 kts | 81° |
| 2026-04-21 23:17 | 58.36087 | -134.79910 | 1721 ft | 151 kts | 77° |
| 2026-04-21 23:18 | 58.36351 | -134.77967 | 1638 ft | 152 kts | 76° |
| 2026-04-21 23:18 | 58.36591 | -134.75997 | 1533 ft | 152 kts | 83° |
| 2026-04-21 23:18 | 58.36666 | -134.74003 | 1439 ft | 151 kts | 89° |
| 2026-04-21 23:18 | 58.36689 | -134.72025 | 1359 ft | 149 kts | 92° |
| 2026-04-21 23:19 | 58.36679 | -134.70039 | 1232 ft | 149 kts | 93° |
| 2026-04-21 23:19 | 58.36595 | -134.68114 | 1162 ft | 145 kts | 103° |
| 2026-04-21 23:19 | 58.36402 | -134.66278 | 1022 ft | 133 kts | 102° |
| 2026-04-21 23:19 | 58.36277 | -134.64653 | 822 ft | 118 kts | 101° |
| 2026-04-21 23:20 | 58.36174 | -134.63155 | 603 ft | 111 kts | 101° |
| 2026-04-21 23:20 | 58.36053 | -134.61730 | 488 ft | 110 kts | 103° |
| 2026-04-21 23:20 | 58.35861 | -134.60279 | 195 ft | 108 kts | 104° |
| 2026-04-21 23:20 | 58.35685 | -134.58992 | 39 ft | 90 kts | 103° |
| 2026-04-21 23:21 | 58.35541 | -134.58004 | 29 ft | 60 kts | 111° |
| 2026-04-21 23:21 | 58.35476 | -134.57511 | 31 ft | 26 kts | 102° |
| 2026-04-21 23:21 | 58.35473 | -134.57304 | 32 ft | 11 kts | 53° |
| 2026-04-21 23:21 | 58.35560 | -134.57335 | 30 ft | 16 kts | 304° |
| 2026-04-21 23:22 | 58.35636 | -134.57379 | 30 ft | 12 kts | 32° |
| 2026-04-21 23:22 | 58.35624 | -134.57188 | 30 ft | 11 kts | 106° |
| 2026-04-21 23:22 | 58.35614 | -134.57132 | 30 ft | 0 kts | 120° |
| 2026-04-21 23:22 | 58.35608 | -134.57075 | 30 ft | 16 kts | 102° |
| 2026-04-21 23:23 | 58.35581 | -134.56906 | 30 ft | 15 kts | 104° |
| 2026-04-21 23:23 | 58.35607 | -134.56759 | 30 ft | 18 kts | 19° |
| 2026-04-21 23:23 | 58.35632 | -134.56609 | 30 ft | 15 kts | 104° |
| 2026-04-21 23:23 | 58.35623 | -134.56532 | 30 ft | 0 kts | 105° |